sensor_id;sensor_type;location;lat;lon;timestamp;temperature;humidity
14099;DHT22;7126;48.458;7.930;2023-12-20T00:01:46;7.00;99.90
14099;DHT22;7126;48.458;7.930;2023-12-20T00:04:11;7.00;99.90
14099;DHT22;7126;48.458;7.930;2023-12-20T00:06:37;7.00;99.90
14099;DHT22;7126;48.458;7.930;2023-12-20T00:09:03;7.00;99.90
14099;DHT22;7126;48.458;7.930;2023-12-20T00:11:28;7.00;99.90
14099;DHT22;7126;48.458;7.930;2023-12-20T00:13:53;7.00;99.90
14099;DHT22;7126;48.458;7.930;2023-12-20T00:16:19;7.00;99.90
14099;DHT22;7126;48.458;7.930;2023-12-20T00:18:45;7.00;99.90
14099;DHT22;7126;48.458;7.930;2023-12-20T00:21:10;7.00;99.90
14099;DHT22;7126;48.458;7.930;2023-12-20T00:23:36;7.00;99.90
14099;DHT22;7126;48.458;7.930;2023-12-20T00:26:01;7.00;99.90
14099;DHT22;7126;48.458;7.930;2023-12-20T00:28:27;7.00;99.90
14099;DHT22;7126;48.458;7.930;2023-12-20T00:30:52;7.00;99.90
14099;DHT22;7126;48.458;7.930;2023-12-20T00:33:18;7.00;99.90
14099;DHT22;7126;48.458;7.930;2023-12-20T00:35:44;7.00;99.90
14099;DHT22;7126;48.458;7.930;2023-12-20T00:38:09;7.00;99.90
14099;DHT22;7126;48.458;7.930;2023-12-20T00:40:36;7.00;99.90
14099;DHT22;7126;48.458;7.930;2023-12-20T00:43:02;7.00;99.90
14099;DHT22;7126;48.458;7.930;2023-12-20T00:45:27;7.00;99.90
14099;DHT22;7126;48.458;7.930;2023-12-20T00:47:53;7.10;99.90
14099;DHT22;7126;48.458;7.930;2023-12-20T00:50:18;7.00;99.90
14099;DHT22;7126;48.458;7.930;2023-12-20T00:52:44;7.10;99.90
14099;DHT22;7126;48.458;7.930;2023-12-20T00:55:09;7.00;99.90
14099;DHT22;7126;48.458;7.930;2023-12-20T00:57:35;7.10;99.90
14099;DHT22;7126;48.458;7.930;2023-12-20T01:00:00;7.10;99.90
14099;DHT22;7126;48.458;7.930;2023-12-20T01:02:26;7.10;99.90
14099;DHT22;7126;48.458;7.930;2023-12-20T01:04:51;7.00;99.90
14099;DHT22;7126;48.458;7.930;2023-12-20T01:07:17;7.00;99.90
14099;DHT22;7126;48.458;7.930;2023-12-20T01:09:42;7.00;99.90
14099;DHT22;7126;48.458;7.930;2023-12-20T01:12:08;7.10;99.90
14099;DHT22;7126;48.458;7.930;2023-12-20T01:14:34;7.00;99.90
14099;DHT22;7126;48.458;7.930;2023-12-20T01:16:59;7.00;99.90
14099;DHT22;7126;48.458;7.930;2023-12-20T01:19:25;7.10;99.90
14099;DHT22;7126;48.458;7.930;2023-12-20T01:21:52;7.10;99.90
14099;DHT22;7126;48.458;7.930;2023-12-20T01:24:17;7.10;99.90
14099;DHT22;7126;48.458;7.930;2023-12-20T01:26:43;7.10;99.90
14099;DHT22;7126;48.458;7.930;2023-12-20T01:29:09;7.10;99.90
14099;DHT22;7126;48.458;7.930;2023-12-20T01:31:34;7.10;99.90
14099;DHT22;7126;48.458;7.930;2023-12-20T01:33:59;7.10;99.90
14099;DHT22;7126;48.458;7.930;2023-12-20T01:36:25;7.10;99.90
14099;DHT22;7126;48.458;7.930;2023-12-20T01:38:50;7.10;99.90
14099;DHT22;7126;48.458;7.930;2023-12-20T01:41:16;7.10;99.90
14099;DHT22;7126;48.458;7.930;2023-12-20T01:43:41;7.20;99.90
14099;DHT22;7126;48.458;7.930;2023-12-20T01:46:07;7.20;99.90
14099;DHT22;7126;48.458;7.930;2023-12-20T01:48:32;7.20;99.90
14099;DHT22;7126;48.458;7.930;2023-12-20T01:50:59;7.10;99.90
14099;DHT22;7126;48.458;7.930;2023-12-20T01:53:25;7.20;99.90
14099;DHT22;7126;48.458;7.930;2023-12-20T01:55:54;7.10;99.90
14099;DHT22;7126;48.458;7.930;2023-12-20T01:58:20;7.10;99.90
14099;DHT22;7126;48.458;7.930;2023-12-20T02:00:46;7.10;99.90
14099;DHT22;7126;48.458;7.930;2023-12-20T02:03:12;7.10;99.90
14099;DHT22;7126;48.458;7.930;2023-12-20T02:05:38;7.10;99.90
14099;DHT22;7126;48.458;7.930;2023-12-20T02:08:04;7.20;99.90
14099;DHT22;7126;48.458;7.930;2023-12-20T02:10:31;7.20;99.90
14099;DHT22;7126;48.458;7.930;2023-12-20T02:12:57;7.20;99.90
14099;DHT22;7126;48.458;7.930;2023-12-20T02:15:22;7.20;99.90
14099;DHT22;7126;48.458;7.930;2023-12-20T02:17:49;7.10;99.90
14099;DHT22;7126;48.458;7.930;2023-12-20T02:20:15;7.00;99.90
14099;DHT22;7126;48.458;7.930;2023-12-20T02:22:40;7.00;99.90
14099;DHT22;7126;48.458;7.930;2023-12-20T02:25:06;7.00;99.90
14099;DHT22;7126;48.458;7.930;2023-12-20T02:27:31;7.00;99.90
14099;DHT22;7126;48.458;7.930;2023-12-20T02:29:57;7.10;99.90
14099;DHT22;7126;48.458;7.930;2023-12-20T02:32:24;7.10;99.90
14099;DHT22;7126;48.458;7.930;2023-12-20T02:34:53;7.10;99.90
14099;DHT22;7126;48.458;7.930;2023-12-20T02:37:18;7.10;99.90
14099;DHT22;7126;48.458;7.930;2023-12-20T02:39:44;7.20;99.90
14099;DHT22;7126;48.458;7.930;2023-12-20T02:42:09;7.20;99.90
14099;DHT22;7126;48.458;7.930;2023-12-20T02:44:35;7.20;99.90
14099;DHT22;7126;48.458;7.930;2023-12-20T02:47:02;7.30;99.90
14099;DHT22;7126;48.458;7.930;2023-12-20T02:49:27;7.30;99.90
14099;DHT22;7126;48.458;7.930;2023-12-20T02:51:53;7.30;99.90
14099;DHT22;7126;48.458;7.930;2023-12-20T02:54:18;7.30;99.90
14099;DHT22;7126;48.458;7.930;2023-12-20T02:56:43;7.30;99.90
14099;DHT22;7126;48.458;7.930;2023-12-20T02:59:09;7.20;99.90
14099;DHT22;7126;48.458;7.930;2023-12-20T03:01:35;7.30;99.90
14099;DHT22;7126;48.458;7.930;2023-12-20T03:04:01;7.30;99.90
14099;DHT22;7126;48.458;7.930;2023-12-20T03:06:27;7.30;99.90
14099;DHT22;7126;48.458;7.930;2023-12-20T03:08:52;7.30;99.90
14099;DHT22;7126;48.458;7.930;2023-12-20T03:11:18;7.30;99.90
14099;DHT22;7126;48.458;7.930;2023-12-20T03:13:43;7.30;99.90
14099;DHT22;7126;48.458;7.930;2023-12-20T03:16:13;7.30;99.90
14099;DHT22;7126;48.458;7.930;2023-12-20T03:18:39;7.30;99.90
14099;DHT22;7126;48.458;7.930;2023-12-20T03:21:05;7.20;99.90
14099;DHT22;7126;48.458;7.930;2023-12-20T03:23:31;7.20;99.90
14099;DHT22;7126;48.458;7.930;2023-12-20T03:25:59;7.30;99.90
14099;DHT22;7126;48.458;7.930;2023-12-20T03:28:25;7.30;99.90
14099;DHT22;7126;48.458;7.930;2023-12-20T03:30:50;7.30;99.90
14099;DHT22;7126;48.458;7.930;2023-12-20T03:33:17;7.30;99.90
14099;DHT22;7126;48.458;7.930;2023-12-20T03:35:42;7.30;99.90
14099;DHT22;7126;48.458;7.930;2023-12-20T03:38:08;7.30;99.90
14099;DHT22;7126;48.458;7.930;2023-12-20T03:40:33;7.40;99.90
14099;DHT22;7126;48.458;7.930;2023-12-20T03:42:59;7.40;99.90
14099;DHT22;7126;48.458;7.930;2023-12-20T03:45:24;7.40;99.90
14099;DHT22;7126;48.458;7.930;2023-12-20T03:47:50;7.40;99.90
14099;DHT22;7126;48.458;7.930;2023-12-20T03:50:23;7.40;99.90
14099;DHT22;7126;48.458;7.930;2023-12-20T03:52:48;7.40;99.90
14099;DHT22;7126;48.458;7.930;2023-12-20T03:55:14;7.40;99.90
14099;DHT22;7126;48.458;7.930;2023-12-20T03:57:40;7.40;99.90
14099;DHT22;7126;48.458;7.930;2023-12-20T04:00:07;7.40;99.90
14099;DHT22;7126;48.458;7.930;2023-12-20T04:02:42;7.30;99.90
14099;DHT22;7126;48.458;7.930;2023-12-20T04:05:09;7.30;99.90
14099;DHT22;7126;48.458;7.930;2023-12-20T04:07:36;7.40;99.90
14099;DHT22;7126;48.458;7.930;2023-12-20T04:10:02;7.40;99.90
14099;DHT22;7126;48.458;7.930;2023-12-20T04:12:29;7.40;99.90
14099;DHT22;7126;48.458;7.930;2023-12-20T04:14:54;7.40;99.90
14099;DHT22;7126;48.458;7.930;2023-12-20T04:17:20;7.40;99.90
14099;DHT22;7126;48.458;7.930;2023-12-20T04:19:48;7.40;99.90
14099;DHT22;7126;48.458;7.930;2023-12-20T04:22:13;7.40;99.90
14099;DHT22;7126;48.458;7.930;2023-12-20T04:24:39;7.40;99.90
14099;DHT22;7126;48.458;7.930;2023-12-20T04:27:04;7.40;99.90
14099;DHT22;7126;48.458;7.930;2023-12-20T04:29:30;7.40;99.90
14099;DHT22;7126;48.458;7.930;2023-12-20T04:31:55;7.40;99.90
14099;DHT22;7126;48.458;7.930;2023-12-20T04:34:21;7.50;99.90
14099;DHT22;7126;48.458;7.930;2023-12-20T04:36:47;7.40;99.90
14099;DHT22;7126;48.458;7.930;2023-12-20T04:39:13;7.40;99.90
14099;DHT22;7126;48.458;7.930;2023-12-20T04:41:40;7.40;99.90
14099;DHT22;7126;48.458;7.930;2023-12-20T04:44:06;7.50;99.90
14099;DHT22;7126;48.458;7.930;2023-12-20T04:46:31;7.50;99.90
14099;DHT22;7126;48.458;7.930;2023-12-20T04:48:57;7.50;99.90
14099;DHT22;7126;48.458;7.930;2023-12-20T04:51:23;7.50;99.90
14099;DHT22;7126;48.458;7.930;2023-12-20T04:53:48;7.50;99.90
14099;DHT22;7126;48.458;7.930;2023-12-20T04:56:13;7.50;99.90
14099;DHT22;7126;48.458;7.930;2023-12-20T04:58:39;7.50;99.90
14099;DHT22;7126;48.458;7.930;2023-12-20T05:01:05;7.50;99.90
14099;DHT22;7126;48.458;7.930;2023-12-20T05:03:31;7.50;99.90
14099;DHT22;7126;48.458;7.930;2023-12-20T05:05:57;7.50;99.90
14099;DHT22;7126;48.458;7.930;2023-12-20T05:08:22;7.40;99.90
14099;DHT22;7126;48.458;7.930;2023-12-20T05:10:48;7.40;99.90
14099;DHT22;7126;48.458;7.930;2023-12-20T05:13:13;7.50;99.90
14099;DHT22;7126;48.458;7.930;2023-12-20T05:15:39;7.40;99.90
14099;DHT22;7126;48.458;7.930;2023-12-20T05:18:05;7.40;99.90
14099;DHT22;7126;48.458;7.930;2023-12-20T05:20:30;7.40;99.90
14099;DHT22;7126;48.458;7.930;2023-12-20T05:22:56;7.40;99.90
14099;DHT22;7126;48.458;7.930;2023-12-20T05:25:21;7.40;99.90
14099;DHT22;7126;48.458;7.930;2023-12-20T05:27:47;7.50;99.90
14099;DHT22;7126;48.458;7.930;2023-12-20T05:30:13;7.50;99.90
14099;DHT22;7126;48.458;7.930;2023-12-20T05:32:39;7.50;99.90
14099;DHT22;7126;48.458;7.930;2023-12-20T05:35:04;7.50;99.90
14099;DHT22;7126;48.458;7.930;2023-12-20T05:37:30;7.50;99.90
14099;DHT22;7126;48.458;7.930;2023-12-20T05:39:55;7.50;99.90
14099;DHT22;7126;48.458;7.930;2023-12-20T05:42:21;7.60;99.90
14099;DHT22;7126;48.458;7.930;2023-12-20T05:44:46;7.60;99.90
14099;DHT22;7126;48.458;7.930;2023-12-20T05:47:12;7.60;99.90
14099;DHT22;7126;48.458;7.930;2023-12-20T05:49:37;7.60;99.90
14099;DHT22;7126;48.458;7.930;2023-12-20T05:52:03;7.60;99.90
14099;DHT22;7126;48.458;7.930;2023-12-20T05:54:29;7.60;99.90
14099;DHT22;7126;48.458;7.930;2023-12-20T05:56:54;7.50;99.90
14099;DHT22;7126;48.458;7.930;2023-12-20T05:59:20;7.50;99.90
14099;DHT22;7126;48.458;7.930;2023-12-20T06:01:46;7.50;99.90
14099;DHT22;7126;48.458;7.930;2023-12-20T06:04:11;7.50;99.90
14099;DHT22;7126;48.458;7.930;2023-12-20T06:06:43;7.50;99.90
14099;DHT22;7126;48.458;7.930;2023-12-20T06:09:09;7.50;99.90
14099;DHT22;7126;48.458;7.930;2023-12-20T06:11:34;7.50;99.90
14099;DHT22;7126;48.458;7.930;2023-12-20T06:14:00;7.50;99.90
14099;DHT22;7126;48.458;7.930;2023-12-20T06:16:25;7.50;99.90
14099;DHT22;7126;48.458;7.930;2023-12-20T06:18:51;7.50;99.90
14099;DHT22;7126;48.458;7.930;2023-12-20T06:21:16;7.50;99.90
14099;DHT22;7126;48.458;7.930;2023-12-20T06:23:42;7.40;99.90
14099;DHT22;7126;48.458;7.930;2023-12-20T06:26:08;7.50;99.90
14099;DHT22;7126;48.458;7.930;2023-12-20T06:28:33;7.50;99.90
14099;DHT22;7126;48.458;7.930;2023-12-20T06:30:59;7.50;99.90
14099;DHT22;7126;48.458;7.930;2023-12-20T06:33:26;7.50;99.90
14099;DHT22;7126;48.458;7.930;2023-12-20T06:35:51;7.50;99.90
14099;DHT22;7126;48.458;7.930;2023-12-20T06:38:18;7.50;99.90
14099;DHT22;7126;48.458;7.930;2023-12-20T06:40:43;7.60;99.90
14099;DHT22;7126;48.458;7.930;2023-12-20T06:43:09;7.60;99.90
14099;DHT22;7126;48.458;7.930;2023-12-20T06:45:35;7.50;99.90
14099;DHT22;7126;48.458;7.930;2023-12-20T06:48:00;7.50;99.90
14099;DHT22;7126;48.458;7.930;2023-12-20T06:50:26;7.50;99.90
14099;DHT22;7126;48.458;7.930;2023-12-20T06:52:51;7.50;99.90
14099;DHT22;7126;48.458;7.930;2023-12-20T06:55:17;7.50;99.90
14099;DHT22;7126;48.458;7.930;2023-12-20T06:57:43;7.50;99.90
14099;DHT22;7126;48.458;7.930;2023-12-20T07:00:12;7.50;99.90
14099;DHT22;7126;48.458;7.930;2023-12-20T07:02:38;7.50;99.90
14099;DHT22;7126;48.458;7.930;2023-12-20T07:05:03;7.50;99.90
14099;DHT22;7126;48.458;7.930;2023-12-20T07:07:29;7.50;99.90
14099;DHT22;7126;48.458;7.930;2023-12-20T07:09:55;7.50;99.90
14099;DHT22;7126;48.458;7.930;2023-12-20T07:12:21;7.60;99.90
14099;DHT22;7126;48.458;7.930;2023-12-20T07:14:46;7.60;99.90
14099;DHT22;7126;48.458;7.930;2023-12-20T07:17:12;7.60;99.90
14099;DHT22;7126;48.458;7.930;2023-12-20T07:19:40;7.60;99.90
14099;DHT22;7126;48.458;7.930;2023-12-20T07:22:06;7.60;99.90
14099;DHT22;7126;48.458;7.930;2023-12-20T07:24:32;7.60;99.90
14099;DHT22;7126;48.458;7.930;2023-12-20T07:26:59;7.60;99.90
14099;DHT22;7126;48.458;7.930;2023-12-20T07:29:25;7.60;99.90
14099;DHT22;7126;48.458;7.930;2023-12-20T07:31:50;7.60;99.90
14099;DHT22;7126;48.458;7.930;2023-12-20T07:34:17;7.60;99.90
14099;DHT22;7126;48.458;7.930;2023-12-20T07:36:43;7.60;99.90
14099;DHT22;7126;48.458;7.930;2023-12-20T07:39:08;7.60;99.90
14099;DHT22;7126;48.458;7.930;2023-12-20T07:41:34;7.60;99.90
14099;DHT22;7126;48.458;7.930;2023-12-20T07:43:59;7.60;99.90
14099;DHT22;7126;48.458;7.930;2023-12-20T07:46:25;7.60;99.90
14099;DHT22;7126;48.458;7.930;2023-12-20T07:48:50;7.70;99.90
14099;DHT22;7126;48.458;7.930;2023-12-20T07:51:16;7.70;99.90
14099;DHT22;7126;48.458;7.930;2023-12-20T07:53:42;7.70;99.90
14099;DHT22;7126;48.458;7.930;2023-12-20T07:56:17;7.70;99.90
14099;DHT22;7126;48.458;7.930;2023-12-20T07:58:44;7.70;99.90
14099;DHT22;7126;48.458;7.930;2023-12-20T08:01:11;7.70;99.90
14099;DHT22;7126;48.458;7.930;2023-12-20T08:03:36;7.70;99.90
14099;DHT22;7126;48.458;7.930;2023-12-20T08:06:02;7.70;99.90
14099;DHT22;7126;48.458;7.930;2023-12-20T08:08:28;7.70;99.90
14099;DHT22;7126;48.458;7.930;2023-12-20T08:10:53;7.70;99.90
14099;DHT22;7126;48.458;7.930;2023-12-20T08:13:19;7.70;99.90
14099;DHT22;7126;48.458;7.930;2023-12-20T08:15:44;7.70;99.90
14099;DHT22;7126;48.458;7.930;2023-12-20T08:18:10;7.70;99.90
14099;DHT22;7126;48.458;7.930;2023-12-20T08:20:35;7.70;99.90
14099;DHT22;7126;48.458;7.930;2023-12-20T08:23:01;7.70;99.90
14099;DHT22;7126;48.458;7.930;2023-12-20T08:25:26;7.80;99.90
14099;DHT22;7126;48.458;7.930;2023-12-20T08:27:53;7.80;99.90
14099;DHT22;7126;48.458;7.930;2023-12-20T08:30:18;7.80;99.90
14099;DHT22;7126;48.458;7.930;2023-12-20T08:32:50;7.90;99.90
14099;DHT22;7126;48.458;7.930;2023-12-20T08:35:15;7.90;99.90
14099;DHT22;7126;48.458;7.930;2023-12-20T08:37:41;7.90;99.90
14099;DHT22;7126;48.458;7.930;2023-12-20T08:40:07;7.90;99.90
14099;DHT22;7126;48.458;7.930;2023-12-20T08:42:32;7.90;99.90
14099;DHT22;7126;48.458;7.930;2023-12-20T08:44:58;7.90;99.90
14099;DHT22;7126;48.458;7.930;2023-12-20T08:47:24;7.80;99.90
14099;DHT22;7126;48.458;7.930;2023-12-20T08:49:50;7.80;99.90
14099;DHT22;7126;48.458;7.930;2023-12-20T08:52:15;7.80;99.90
14099;DHT22;7126;48.458;7.930;2023-12-20T08:54:41;7.80;99.90
14099;DHT22;7126;48.458;7.930;2023-12-20T08:57:06;7.80;99.90
14099;DHT22;7126;48.458;7.930;2023-12-20T08:59:32;7.80;99.90
14099;DHT22;7126;48.458;7.930;2023-12-20T09:01:58;7.70;99.90
14099;DHT22;7126;48.458;7.930;2023-12-20T09:04:23;7.70;99.90
14099;DHT22;7126;48.458;7.930;2023-12-20T09:06:49;7.70;99.90
14099;DHT22;7126;48.458;7.930;2023-12-20T09:09:15;7.70;99.90
14099;DHT22;7126;48.458;7.930;2023-12-20T09:11:40;7.70;99.90
14099;DHT22;7126;48.458;7.930;2023-12-20T09:14:06;7.70;99.90
14099;DHT22;7126;48.458;7.930;2023-12-20T09:16:31;7.70;99.90
14099;DHT22;7126;48.458;7.930;2023-12-20T09:18:57;7.60;99.90
14099;DHT22;7126;48.458;7.930;2023-12-20T09:21:23;7.60;99.90
14099;DHT22;7126;48.458;7.930;2023-12-20T09:23:48;7.60;99.90
14099;DHT22;7126;48.458;7.930;2023-12-20T09:26:14;7.60;99.90
14099;DHT22;7126;48.458;7.930;2023-12-20T09:28:39;7.70;99.90
14099;DHT22;7126;48.458;7.930;2023-12-20T09:31:06;7.70;99.90
14099;DHT22;7126;48.458;7.930;2023-12-20T09:33:32;7.70;99.90
14099;DHT22;7126;48.458;7.930;2023-12-20T09:35:58;7.80;99.90
14099;DHT22;7126;48.458;7.930;2023-12-20T09:38:23;7.80;99.90
14099;DHT22;7126;48.458;7.930;2023-12-20T09:40:49;7.80;99.90
14099;DHT22;7126;48.458;7.930;2023-12-20T09:43:15;7.80;99.90
14099;DHT22;7126;48.458;7.930;2023-12-20T09:45:42;7.80;99.90
14099;DHT22;7126;48.458;7.930;2023-12-20T09:48:11;7.80;99.90
14099;DHT22;7126;48.458;7.930;2023-12-20T09:50:36;7.80;99.90
14099;DHT22;7126;48.458;7.930;2023-12-20T09:53:02;7.80;99.90
14099;DHT22;7126;48.458;7.930;2023-12-20T09:55:30;7.80;99.90
14099;DHT22;7126;48.458;7.930;2023-12-20T09:57:57;7.80;99.90
14099;DHT22;7126;48.458;7.930;2023-12-20T10:00:23;7.80;99.90
14099;DHT22;7126;48.458;7.930;2023-12-20T10:02:57;7.80;99.90
14099;DHT22;7126;48.458;7.930;2023-12-20T10:05:28;7.80;99.90
14099;DHT22;7126;48.458;7.930;2023-12-20T10:07:53;7.80;99.90
14099;DHT22;7126;48.458;7.930;2023-12-20T10:10:19;7.90;99.90
14099;DHT22;7126;48.458;7.930;2023-12-20T10:13:07;7.90;99.90
14099;DHT22;7126;48.458;7.930;2023-12-20T10:15:33;7.90;99.90
14099;DHT22;7126;48.458;7.930;2023-12-20T10:18:00;7.90;99.90
14099;DHT22;7126;48.458;7.930;2023-12-20T10:20:26;7.90;99.90
14099;DHT22;7126;48.458;7.930;2023-12-20T10:22:54;7.90;99.90
14099;DHT22;7126;48.458;7.930;2023-12-20T10:25:21;7.90;99.90
14099;DHT22;7126;48.458;7.930;2023-12-20T10:27:47;8.00;99.90
14099;DHT22;7126;48.458;7.930;2023-12-20T10:30:13;8.00;99.90
14099;DHT22;7126;48.458;7.930;2023-12-20T10:32:39;8.00;99.90
14099;DHT22;7126;48.458;7.930;2023-12-20T10:35:06;8.10;99.90
14099;DHT22;7126;48.458;7.930;2023-12-20T10:37:35;8.10;99.90
14099;DHT22;7126;48.458;7.930;2023-12-20T10:40:03;8.30;99.90
14099;DHT22;7126;48.458;7.930;2023-12-20T10:42:29;8.30;99.90
14099;DHT22;7126;48.458;7.930;2023-12-20T10:44:58;8.20;99.90
14099;DHT22;7126;48.458;7.930;2023-12-20T10:47:25;8.20;99.90
14099;DHT22;7126;48.458;7.930;2023-12-20T10:49:52;8.20;99.90
14099;DHT22;7126;48.458;7.930;2023-12-20T10:52:18;8.10;99.90
14099;DHT22;7126;48.458;7.930;2023-12-20T10:54:45;8.10;99.90
14099;DHT22;7126;48.458;7.930;2023-12-20T10:57:11;8.10;99.90
14099;DHT22;7126;48.458;7.930;2023-12-20T10:59:37;8.10;99.90
14099;DHT22;7126;48.458;7.930;2023-12-20T11:02:04;8.10;99.90
14099;DHT22;7126;48.458;7.930;2023-12-20T11:04:42;8.10;99.90
14099;DHT22;7126;48.458;7.930;2023-12-20T11:09:57;8.10;99.90
14099;DHT22;7126;48.458;7.930;2023-12-20T11:12:48;8.00;99.90
14099;DHT22;7126;48.458;7.930;2023-12-20T11:15:16;7.90;99.90
14099;DHT22;7126;48.458;7.930;2023-12-20T11:17:44;7.90;99.90
14099;DHT22;7126;48.458;7.930;2023-12-20T11:20:11;7.90;99.90
14099;DHT22;7126;48.458;7.930;2023-12-20T11:22:37;7.90;99.90
14099;DHT22;7126;48.458;7.930;2023-12-20T11:25:09;7.90;99.90
14099;DHT22;7126;48.458;7.930;2023-12-20T11:27:42;7.90;99.90
14099;DHT22;7126;48.458;7.930;2023-12-20T11:30:09;7.90;99.90
14099;DHT22;7126;48.458;7.930;2023-12-20T11:32:35;7.90;99.90
14099;DHT22;7126;48.458;7.930;2023-12-20T11:35:16;8.00;99.90
14099;DHT22;7126;48.458;7.930;2023-12-20T11:37:42;8.00;99.90
14099;DHT22;7126;48.458;7.930;2023-12-20T11:40:17;8.00;99.90
14099;DHT22;7126;48.458;7.930;2023-12-20T11:42:49;8.00;99.90
14099;DHT22;7126;48.458;7.930;2023-12-20T11:45:17;8.10;99.90
14099;DHT22;7126;48.458;7.930;2023-12-20T11:47:46;8.10;99.90
14099;DHT22;7126;48.458;7.930;2023-12-20T11:50:12;8.00;99.90
14099;DHT22;7126;48.458;7.930;2023-12-20T11:52:38;8.00;99.90
14099;DHT22;7126;48.458;7.930;2023-12-20T11:55:04;8.10;99.90
14099;DHT22;7126;48.458;7.930;2023-12-20T11:57:33;8.20;99.90
14099;DHT22;7126;48.458;7.930;2023-12-20T11:59:59;8.20;99.90
14099;DHT22;7126;48.458;7.930;2023-12-20T12:02:25;8.30;99.90
14099;DHT22;7126;48.458;7.930;2023-12-20T12:04:50;8.30;99.90
14099;DHT22;7126;48.458;7.930;2023-12-20T12:07:17;8.30;99.90
14099;DHT22;7126;48.458;7.930;2023-12-20T12:09:43;8.30;99.90
14099;DHT22;7126;48.458;7.930;2023-12-20T12:12:08;8.30;99.90
14099;DHT22;7126;48.458;7.930;2023-12-20T12:14:34;8.40;99.90
14099;DHT22;7126;48.458;7.930;2023-12-20T12:17:02;8.50;99.90
14099;DHT22;7126;48.458;7.930;2023-12-20T12:19:29;8.60;99.90
14099;DHT22;7126;48.458;7.930;2023-12-20T12:22:08;8.50;99.90
14099;DHT22;7126;48.458;7.930;2023-12-20T12:24:36;8.40;99.90
14099;DHT22;7126;48.458;7.930;2023-12-20T12:27:02;8.40;99.90
14099;DHT22;7126;48.458;7.930;2023-12-20T12:29:28;8.40;99.90
14099;DHT22;7126;48.458;7.930;2023-12-20T12:31:54;8.30;99.90
14099;DHT22;7126;48.458;7.930;2023-12-20T12:34:20;8.30;99.90
14099;DHT22;7126;48.458;7.930;2023-12-20T12:36:45;8.30;99.90
14099;DHT22;7126;48.458;7.930;2023-12-20T12:39:18;8.20;99.90
14099;DHT22;7126;48.458;7.930;2023-12-20T12:41:44;8.20;99.90
14099;DHT22;7126;48.458;7.930;2023-12-20T12:44:09;8.10;99.90
14099;DHT22;7126;48.458;7.930;2023-12-20T12:46:35;8.10;99.90
14099;DHT22;7126;48.458;7.930;2023-12-20T12:49:01;8.10;99.90
14099;DHT22;7126;48.458;7.930;2023-12-20T12:51:26;8.10;99.90
14099;DHT22;7126;48.458;7.930;2023-12-20T12:53:52;8.20;99.90
14099;DHT22;7126;48.458;7.930;2023-12-20T12:56:18;8.20;99.90
14099;DHT22;7126;48.458;7.930;2023-12-20T12:58:43;8.20;99.90
14099;DHT22;7126;48.458;7.930;2023-12-20T13:01:09;8.10;99.90
14099;DHT22;7126;48.458;7.930;2023-12-20T13:03:35;8.10;99.90
14099;DHT22;7126;48.458;7.930;2023-12-20T13:06:01;8.10;99.90
14099;DHT22;7126;48.458;7.930;2023-12-20T13:08:28;8.10;99.90
14099;DHT22;7126;48.458;7.930;2023-12-20T13:10:54;8.10;99.90
14099;DHT22;7126;48.458;7.930;2023-12-20T13:13:19;8.10;99.90
14099;DHT22;7126;48.458;7.930;2023-12-20T13:15:45;8.10;99.90
14099;DHT22;7126;48.458;7.930;2023-12-20T13:18:16;8.10;99.90
14099;DHT22;7126;48.458;7.930;2023-12-20T13:20:42;8.10;99.90
14099;DHT22;7126;48.458;7.930;2023-12-20T13:23:07;8.10;99.90
14099;DHT22;7126;48.458;7.930;2023-12-20T13:25:33;8.10;99.90
14099;DHT22;7126;48.458;7.930;2023-12-20T13:27:58;8.20;99.90
14099;DHT22;7126;48.458;7.930;2023-12-20T13:30:24;8.20;99.90
14099;DHT22;7126;48.458;7.930;2023-12-20T13:32:50;8.10;99.90
14099;DHT22;7126;48.458;7.930;2023-12-20T13:35:15;8.10;99.90
14099;DHT22;7126;48.458;7.930;2023-12-20T13:37:41;8.00;99.90
14099;DHT22;7126;48.458;7.930;2023-12-20T13:40:07;8.00;99.90
14099;DHT22;7126;48.458;7.930;2023-12-20T13:42:33;8.00;99.90
14099;DHT22;7126;48.458;7.930;2023-12-20T13:44:58;8.00;99.90
14099;DHT22;7126;48.458;7.930;2023-12-20T13:47:24;8.00;99.90
14099;DHT22;7126;48.458;7.930;2023-12-20T13:49:49;8.00;99.90
14099;DHT22;7126;48.458;7.930;2023-12-20T13:52:15;8.00;99.90
14099;DHT22;7126;48.458;7.930;2023-12-20T13:54:41;8.00;99.90
14099;DHT22;7126;48.458;7.930;2023-12-20T13:57:07;8.00;99.90
14099;DHT22;7126;48.458;7.930;2023-12-20T13:59:32;8.00;99.90
14099;DHT22;7126;48.458;7.930;2023-12-20T14:01:58;7.90;99.90
14099;DHT22;7126;48.458;7.930;2023-12-20T14:04:23;7.90;99.90
14099;DHT22;7126;48.458;7.930;2023-12-20T14:06:49;7.90;99.90
14099;DHT22;7126;48.458;7.930;2023-12-20T14:09:14;8.00;99.90
14099;DHT22;7126;48.458;7.930;2023-12-20T14:11:40;8.00;99.90
14099;DHT22;7126;48.458;7.930;2023-12-20T14:14:07;8.00;99.90
14099;DHT22;7126;48.458;7.930;2023-12-20T14:16:33;8.00;99.90
14099;DHT22;7126;48.458;7.930;2023-12-20T14:18:59;7.90;99.90
14099;DHT22;7126;48.458;7.930;2023-12-20T14:21:24;7.90;99.90
14099;DHT22;7126;48.458;7.930;2023-12-20T14:23:50;7.90;99.90
14099;DHT22;7126;48.458;7.930;2023-12-20T14:26:17;7.90;99.90
14099;DHT22;7126;48.458;7.930;2023-12-20T14:28:42;7.90;99.90
14099;DHT22;7126;48.458;7.930;2023-12-20T14:31:08;7.90;99.90
14099;DHT22;7126;48.458;7.930;2023-12-20T14:33:35;7.80;99.90
14099;DHT22;7126;48.458;7.930;2023-12-20T14:36:01;7.90;99.90
14099;DHT22;7126;48.458;7.930;2023-12-20T14:38:30;7.90;99.90
14099;DHT22;7126;48.458;7.930;2023-12-20T14:40:56;7.90;99.90
14099;DHT22;7126;48.458;7.930;2023-12-20T14:43:22;7.90;99.90
14099;DHT22;7126;48.458;7.930;2023-12-20T14:45:47;7.90;99.90
14099;DHT22;7126;48.458;7.930;2023-12-20T14:48:13;7.90;99.90
14099;DHT22;7126;48.458;7.930;2023-12-20T14:50:38;7.90;99.90
14099;DHT22;7126;48.458;7.930;2023-12-20T14:53:06;7.80;99.90
14099;DHT22;7126;48.458;7.930;2023-12-20T14:55:32;7.80;99.90
14099;DHT22;7126;48.458;7.930;2023-12-20T14:57:59;7.70;99.90
14099;DHT22;7126;48.458;7.930;2023-12-20T15:00:25;7.70;99.90
14099;DHT22;7126;48.458;7.930;2023-12-20T15:02:50;7.70;99.90
14099;DHT22;7126;48.458;7.930;2023-12-20T15:05:16;7.70;99.90
14099;DHT22;7126;48.458;7.930;2023-12-20T15:07:43;7.70;99.90
14099;DHT22;7126;48.458;7.930;2023-12-20T15:10:09;7.60;99.90
14099;DHT22;7126;48.458;7.930;2023-12-20T15:12:34;7.70;99.90
14099;DHT22;7126;48.458;7.930;2023-12-20T15:15:00;7.70;99.90
14099;DHT22;7126;48.458;7.930;2023-12-20T15:17:25;7.60;99.90
14099;DHT22;7126;48.458;7.930;2023-12-20T15:19:52;7.60;99.90
14099;DHT22;7126;48.458;7.930;2023-12-20T15:22:18;7.50;99.90
14099;DHT22;7126;48.458;7.930;2023-12-20T15:24:43;7.50;99.90
14099;DHT22;7126;48.458;7.930;2023-12-20T15:27:11;7.40;99.90
14099;DHT22;7126;48.458;7.930;2023-12-20T15:29:37;7.40;99.90
14099;DHT22;7126;48.458;7.930;2023-12-20T15:32:03;7.40;99.90
14099;DHT22;7126;48.458;7.930;2023-12-20T15:34:29;7.40;99.90
14099;DHT22;7126;48.458;7.930;2023-12-20T15:36:55;7.50;99.90
14099;DHT22;7126;48.458;7.930;2023-12-20T15:39:20;7.50;99.90
14099;DHT22;7126;48.458;7.930;2023-12-20T15:41:46;7.50;99.90
14099;DHT22;7126;48.458;7.930;2023-12-20T15:44:12;7.50;99.90
14099;DHT22;7126;48.458;7.930;2023-12-20T15:46:38;7.50;99.90
14099;DHT22;7126;48.458;7.930;2023-12-20T15:49:04;7.50;99.90
14099;DHT22;7126;48.458;7.930;2023-12-20T15:51:30;7.40;99.90
14099;DHT22;7126;48.458;7.930;2023-12-20T15:53:55;7.40;99.90
14099;DHT22;7126;48.458;7.930;2023-12-20T15:56:22;7.40;99.90
14099;DHT22;7126;48.458;7.930;2023-12-20T15:58:47;7.40;99.90